sensor_id;sensor_type;location;lat;lon;timestamp;temperature;humidity
15328;DHT22;7764;51.430;6.840;2022-08-25T00:01:16;24.30;99.90
15328;DHT22;7764;51.430;6.840;2022-08-25T00:03:44;24.40;99.90
15328;DHT22;7764;51.430;6.840;2022-08-25T00:06:11;24.40;99.90
15328;DHT22;7764;51.430;6.840;2022-08-25T00:08:39;24.30;99.90
15328;DHT22;7764;51.430;6.840;2022-08-25T00:11:08;24.20;99.90
15328;DHT22;7764;51.430;6.840;2022-08-25T00:13:38;24.10;99.90
15328;DHT22;7764;51.430;6.840;2022-08-25T00:16:05;24.10;99.90
15328;DHT22;7764;51.430;6.840;2022-08-25T00:18:33;24.00;99.90
15328;DHT22;7764;51.430;6.840;2022-08-25T00:21:01;24.00;99.90
15328;DHT22;7764;51.430;6.840;2022-08-25T00:23:28;24.00;99.90
15328;DHT22;7764;51.430;6.840;2022-08-25T00:25:55;24.00;99.90
15328;DHT22;7764;51.430;6.840;2022-08-25T00:28:22;24.00;99.90
15328;DHT22;7764;51.430;6.840;2022-08-25T00:30:50;23.90;99.90
15328;DHT22;7764;51.430;6.840;2022-08-25T00:33:17;23.90;99.90
15328;DHT22;7764;51.430;6.840;2022-08-25T00:35:45;23.80;99.90
15328;DHT22;7764;51.430;6.840;2022-08-25T00:38:12;23.80;99.90
15328;DHT22;7764;51.430;6.840;2022-08-25T00:40:42;23.70;99.90
15328;DHT22;7764;51.430;6.840;2022-08-25T00:43:10;23.60;99.90
15328;DHT22;7764;51.430;6.840;2022-08-25T00:45:37;23.60;99.90
15328;DHT22;7764;51.430;6.840;2022-08-25T00:48:06;23.60;99.90
15328;DHT22;7764;51.430;6.840;2022-08-25T00:50:33;23.60;99.90
15328;DHT22;7764;51.430;6.840;2022-08-25T00:53:03;23.50;99.90
15328;DHT22;7764;51.430;6.840;2022-08-25T00:55:33;23.50;99.90
15328;DHT22;7764;51.430;6.840;2022-08-25T00:58:05;23.40;99.90
15328;DHT22;7764;51.430;6.840;2022-08-25T01:00:39;23.40;99.90
15328;DHT22;7764;51.430;6.840;2022-08-25T01:03:08;23.40;99.90
15328;DHT22;7764;51.430;6.840;2022-08-25T01:05:36;23.30;99.90
15328;DHT22;7764;51.430;6.840;2022-08-25T01:08:04;23.30;99.90
15328;DHT22;7764;51.430;6.840;2022-08-25T01:10:33;23.30;99.90
15328;DHT22;7764;51.430;6.840;2022-08-25T01:13:03;23.30;99.90
15328;DHT22;7764;51.430;6.840;2022-08-25T01:15:33;23.40;99.90
15328;DHT22;7764;51.430;6.840;2022-08-25T01:17:59;23.30;99.90
15328;DHT22;7764;51.430;6.840;2022-08-25T01:20:30;23.30;99.90
15328;DHT22;7764;51.430;6.840;2022-08-25T01:22:59;23.40;99.90
15328;DHT22;7764;51.430;6.840;2022-08-25T01:25:35;23.40;99.90
15328;DHT22;7764;51.430;6.840;2022-08-25T01:28:05;23.40;99.90
15328;DHT22;7764;51.430;6.840;2022-08-25T01:30:32;23.50;99.90
15328;DHT22;7764;51.430;6.840;2022-08-25T01:33:02;23.50;99.90
15328;DHT22;7764;51.430;6.840;2022-08-25T01:35:29;23.50;99.90
15328;DHT22;7764;51.430;6.840;2022-08-25T01:37:58;23.40;99.90
15328;DHT22;7764;51.430;6.840;2022-08-25T01:40:25;23.30;99.90
15328;DHT22;7764;51.430;6.840;2022-08-25T01:42:57;23.30;99.90
15328;DHT22;7764;51.430;6.840;2022-08-25T01:45:28;23.20;99.90
15328;DHT22;7764;51.430;6.840;2022-08-25T01:47:55;23.30;99.90
15328;DHT22;7764;51.430;6.840;2022-08-25T01:50:22;23.20;99.90
15328;DHT22;7764;51.430;6.840;2022-08-25T01:52:53;23.10;99.90
15328;DHT22;7764;51.430;6.840;2022-08-25T01:55:22;23.10;99.90
15328;DHT22;7764;51.430;6.840;2022-08-25T01:57:49;23.00;99.90
15328;DHT22;7764;51.430;6.840;2022-08-25T02:00:18;23.00;99.90
15328;DHT22;7764;51.430;6.840;2022-08-25T02:02:45;22.90;99.90
15328;DHT22;7764;51.430;6.840;2022-08-25T02:05:13;22.90;99.90
15328;DHT22;7764;51.430;6.840;2022-08-25T02:07:42;22.90;99.90
15328;DHT22;7764;51.430;6.840;2022-08-25T02:10:11;22.80;99.90
15328;DHT22;7764;51.430;6.840;2022-08-25T02:12:39;22.70;99.90
15328;DHT22;7764;51.430;6.840;2022-08-25T02:15:07;22.70;99.90
15328;DHT22;7764;51.430;6.840;2022-08-25T02:17:35;22.80;99.90
15328;DHT22;7764;51.430;6.840;2022-08-25T02:20:03;22.80;99.90
15328;DHT22;7764;51.430;6.840;2022-08-25T02:22:30;22.80;99.90
15328;DHT22;7764;51.430;6.840;2022-08-25T02:24:57;22.70;99.90
15328;DHT22;7764;51.430;6.840;2022-08-25T02:27:24;22.70;99.90
15328;DHT22;7764;51.430;6.840;2022-08-25T02:29:52;22.70;99.90
15328;DHT22;7764;51.430;6.840;2022-08-25T02:32:19;22.50;99.90
15328;DHT22;7764;51.430;6.840;2022-08-25T02:34:46;22.50;99.90
15328;DHT22;7764;51.430;6.840;2022-08-25T02:37:13;22.50;99.90
15328;DHT22;7764;51.430;6.840;2022-08-25T02:39:40;22.40;99.90
15328;DHT22;7764;51.430;6.840;2022-08-25T02:42:06;22.50;99.90
15328;DHT22;7764;51.430;6.840;2022-08-25T02:44:33;22.40;99.90
15328;DHT22;7764;51.430;6.840;2022-08-25T02:47:02;22.30;99.90
15328;DHT22;7764;51.430;6.840;2022-08-25T02:49:29;22.30;99.90
15328;DHT22;7764;51.430;6.840;2022-08-25T02:51:56;22.20;99.90
15328;DHT22;7764;51.430;6.840;2022-08-25T02:54:25;22.10;99.90
15328;DHT22;7764;51.430;6.840;2022-08-25T02:56:52;22.10;99.90
15328;DHT22;7764;51.430;6.840;2022-08-25T02:59:18;22.20;99.90
15328;DHT22;7764;51.430;6.840;2022-08-25T03:01:45;22.10;99.90
15328;DHT22;7764;51.430;6.840;2022-08-25T03:04:14;22.00;99.90
15328;DHT22;7764;51.430;6.840;2022-08-25T03:06:41;21.90;99.90
15328;DHT22;7764;51.430;6.840;2022-08-25T03:09:07;21.80;99.90
15328;DHT22;7764;51.430;6.840;2022-08-25T03:11:34;21.80;99.90
15328;DHT22;7764;51.430;6.840;2022-08-25T03:14:03;21.70;99.90
15328;DHT22;7764;51.430;6.840;2022-08-25T03:16:30;21.70;99.90
15328;DHT22;7764;51.430;6.840;2022-08-25T03:18:57;21.60;99.90
15328;DHT22;7764;51.430;6.840;2022-08-25T03:21:27;21.60;99.90
15328;DHT22;7764;51.430;6.840;2022-08-25T03:23:54;21.80;99.90
15328;DHT22;7764;51.430;6.840;2022-08-25T03:26:22;21.80;99.90
15328;DHT22;7764;51.430;6.840;2022-08-25T03:29:07;21.90;99.90
15328;DHT22;7764;51.430;6.840;2022-08-25T03:31:35;21.80;99.90
15328;DHT22;7764;51.430;6.840;2022-08-25T03:34:03;21.90;99.90
15328;DHT22;7764;51.430;6.840;2022-08-25T03:36:32;21.80;99.90
15328;DHT22;7764;51.430;6.840;2022-08-25T03:38:59;21.70;99.90
15328;DHT22;7764;51.430;6.840;2022-08-25T03:41:27;21.60;99.90
15328;DHT22;7764;51.430;6.840;2022-08-25T03:43:57;21.60;99.90
15328;DHT22;7764;51.430;6.840;2022-08-25T03:46:26;21.60;99.90
15328;DHT22;7764;51.430;6.840;2022-08-25T03:48:54;21.60;99.90
15328;DHT22;7764;51.430;6.840;2022-08-25T03:51:22;21.50;99.90
15328;DHT22;7764;51.430;6.840;2022-08-25T03:53:51;21.50;99.90
15328;DHT22;7764;51.430;6.840;2022-08-25T03:56:18;21.40;99.90
15328;DHT22;7764;51.430;6.840;2022-08-25T03:58:46;21.50;99.90
15328;DHT22;7764;51.430;6.840;2022-08-25T04:01:13;21.50;99.90
15328;DHT22;7764;51.430;6.840;2022-08-25T04:03:40;21.40;99.90
15328;DHT22;7764;51.430;6.840;2022-08-25T04:06:07;21.30;99.90
15328;DHT22;7764;51.430;6.840;2022-08-25T04:08:35;21.30;99.90
15328;DHT22;7764;51.430;6.840;2022-08-25T04:11:07;21.40;99.90
15328;DHT22;7764;51.430;6.840;2022-08-25T04:13:35;21.40;99.90
15328;DHT22;7764;51.430;6.840;2022-08-25T04:16:02;21.30;99.90
15328;DHT22;7764;51.430;6.840;2022-08-25T04:18:29;21.30;99.90
15328;DHT22;7764;51.430;6.840;2022-08-25T04:21:02;21.30;99.90
15328;DHT22;7764;51.430;6.840;2022-08-25T04:23:29;21.40;99.90
15328;DHT22;7764;51.430;6.840;2022-08-25T04:25:56;21.40;99.90
15328;DHT22;7764;51.430;6.840;2022-08-25T04:28:24;21.40;99.90
15328;DHT22;7764;51.430;6.840;2022-08-25T04:30:51;21.30;99.90
15328;DHT22;7764;51.430;6.840;2022-08-25T04:33:18;21.30;99.90
15328;DHT22;7764;51.430;6.840;2022-08-25T04:35:47;21.30;99.90
15328;DHT22;7764;51.430;6.840;2022-08-25T04:38:14;21.30;99.90
15328;DHT22;7764;51.430;6.840;2022-08-25T04:40:41;21.30;99.90
15328;DHT22;7764;51.430;6.840;2022-08-25T04:43:08;21.20;99.90
15328;DHT22;7764;51.430;6.840;2022-08-25T04:45:38;21.30;99.90
15328;DHT22;7764;51.430;6.840;2022-08-25T04:48:05;21.20;99.90
15328;DHT22;7764;51.430;6.840;2022-08-25T04:50:32;21.20;99.90
15328;DHT22;7764;51.430;6.840;2022-08-25T04:53:00;21.30;99.90
15328;DHT22;7764;51.430;6.840;2022-08-25T04:55:27;21.40;99.90
15328;DHT22;7764;51.430;6.840;2022-08-25T04:57:54;21.30;99.90
15328;DHT22;7764;51.430;6.840;2022-08-25T05:00:21;21.30;99.90
15328;DHT22;7764;51.430;6.840;2022-08-25T05:02:49;21.40;99.90
15328;DHT22;7764;51.430;6.840;2022-08-25T05:05:16;21.40;99.90
15328;DHT22;7764;51.430;6.840;2022-08-25T05:07:43;21.50;99.90
15328;DHT22;7764;51.430;6.840;2022-08-25T05:10:10;21.70;99.90
15328;DHT22;7764;51.430;6.840;2022-08-25T05:12:37;21.70;99.90
15328;DHT22;7764;51.430;6.840;2022-08-25T05:15:04;21.70;99.90
15328;DHT22;7764;51.430;6.840;2022-08-25T05:17:45;21.60;99.90
15328;DHT22;7764;51.430;6.840;2022-08-25T05:20:14;21.70;99.90
15328;DHT22;7764;51.430;6.840;2022-08-25T05:22:43;21.70;99.90
15328;DHT22;7764;51.430;6.840;2022-08-25T05:25:11;21.80;99.90
15328;DHT22;7764;51.430;6.840;2022-08-25T05:27:39;21.90;99.90
15328;DHT22;7764;51.430;6.840;2022-08-25T05:30:07;21.90;99.90
15328;DHT22;7764;51.430;6.840;2022-08-25T05:32:35;22.00;99.90
15328;DHT22;7764;51.430;6.840;2022-08-25T05:35:02;22.00;99.90
15328;DHT22;7764;51.430;6.840;2022-08-25T05:37:31;22.00;99.90
15328;DHT22;7764;51.430;6.840;2022-08-25T05:39:58;22.00;99.90
15328;DHT22;7764;51.430;6.840;2022-08-25T05:42:25;22.20;99.90
15328;DHT22;7764;51.430;6.840;2022-08-25T05:44:53;22.60;99.90
15328;DHT22;7764;51.430;6.840;2022-08-25T05:47:20;22.90;99.90
15328;DHT22;7764;51.430;6.840;2022-08-25T05:49:47;23.20;99.90
15328;DHT22;7764;51.430;6.840;2022-08-25T05:52:14;23.50;99.90
15328;DHT22;7764;51.430;6.840;2022-08-25T05:54:42;23.80;99.90
15328;DHT22;7764;51.430;6.840;2022-08-25T05:57:09;24.20;99.90
15328;DHT22;7764;51.430;6.840;2022-08-25T05:59:36;24.50;99.90
15328;DHT22;7764;51.430;6.840;2022-08-25T06:02:03;24.80;99.90
15328;DHT22;7764;51.430;6.840;2022-08-25T06:04:47;25.10;99.90
15328;DHT22;7764;51.430;6.840;2022-08-25T06:07:14;25.50;99.90
15328;DHT22;7764;51.430;6.840;2022-08-25T06:09:43;26.00;99.90
15328;DHT22;7764;51.430;6.840;2022-08-25T06:12:11;26.20;99.90
15328;DHT22;7764;51.430;6.840;2022-08-25T06:14:37;26.50;99.90
15328;DHT22;7764;51.430;6.840;2022-08-25T06:17:04;26.60;99.90
15328;DHT22;7764;51.430;6.840;2022-08-25T06:19:31;26.70;99.90
15328;DHT22;7764;51.430;6.840;2022-08-25T06:21:58;26.90;99.90
15328;DHT22;7764;51.430;6.840;2022-08-25T06:24:27;27.00;99.90
15328;DHT22;7764;51.430;6.840;2022-08-25T06:26:56;27.20;99.90
15328;DHT22;7764;51.430;6.840;2022-08-25T06:29:23;27.30;99.90
15328;DHT22;7764;51.430;6.840;2022-08-25T06:31:50;27.50;99.40
15328;DHT22;7764;51.430;6.840;2022-08-25T06:34:18;27.80;97.30
15328;DHT22;7764;51.430;6.840;2022-08-25T06:36:45;28.00;96.10
15328;DHT22;7764;51.430;6.840;2022-08-25T06:39:12;28.10;95.40
15328;DHT22;7764;51.430;6.840;2022-08-25T06:41:39;28.30;94.80
15328;DHT22;7764;51.430;6.840;2022-08-25T06:44:08;28.20;94.00
15328;DHT22;7764;51.430;6.840;2022-08-25T06:46:35;28.20;93.00
15328;DHT22;7764;51.430;6.840;2022-08-25T06:49:02;28.60;92.10
15328;DHT22;7764;51.430;6.840;2022-08-25T06:51:29;29.00;91.00
15328;DHT22;7764;51.430;6.840;2022-08-25T06:53:56;28.90;89.90
15328;DHT22;7764;51.430;6.840;2022-08-25T06:56:23;29.00;89.80
15328;DHT22;7764;51.430;6.840;2022-08-25T06:58:50;29.10;88.70
15328;DHT22;7764;51.430;6.840;2022-08-25T07:01:20;29.10;88.00
15328;DHT22;7764;51.430;6.840;2022-08-25T07:03:48;29.20;87.00
15328;DHT22;7764;51.430;6.840;2022-08-25T07:06:16;29.50;85.80
15328;DHT22;7764;51.430;6.840;2022-08-25T07:08:44;29.80;84.30
15328;DHT22;7764;51.430;6.840;2022-08-25T07:11:11;29.80;83.60
15328;DHT22;7764;51.430;6.840;2022-08-25T07:13:39;29.80;83.30
15328;DHT22;7764;51.430;6.840;2022-08-25T07:16:06;29.80;82.10
15328;DHT22;7764;51.430;6.840;2022-08-25T07:18:34;29.80;82.50
15328;DHT22;7764;51.430;6.840;2022-08-25T07:21:01;29.90;82.10
15328;DHT22;7764;51.430;6.840;2022-08-25T07:23:28;29.90;81.90
15328;DHT22;7764;51.430;6.840;2022-08-25T07:25:55;30.10;81.00
15328;DHT22;7764;51.430;6.840;2022-08-25T07:28:23;30.20;80.60
15328;DHT22;7764;51.430;6.840;2022-08-25T07:30:50;29.90;80.70
15328;DHT22;7764;51.430;6.840;2022-08-25T07:33:17;30.00;81.50
15328;DHT22;7764;51.430;6.840;2022-08-25T07:35:45;30.00;81.60
15328;DHT22;7764;51.430;6.840;2022-08-25T07:38:11;30.00;83.80
15328;DHT22;7764;51.430;6.840;2022-08-25T07:40:38;30.00;82.60
15328;DHT22;7764;51.430;6.840;2022-08-25T07:43:06;29.90;81.80
15328;DHT22;7764;51.430;6.840;2022-08-25T07:45:36;30.00;81.90
15328;DHT22;7764;51.430;6.840;2022-08-25T07:48:06;30.00;82.00
15328;DHT22;7764;51.430;6.840;2022-08-25T07:50:34;30.00;81.30
15328;DHT22;7764;51.430;6.840;2022-08-25T07:53:04;30.20;81.90
15328;DHT22;7764;51.430;6.840;2022-08-25T07:55:32;30.30;80.40
15328;DHT22;7764;51.430;6.840;2022-08-25T07:58:01;30.10;80.40
15328;DHT22;7764;51.430;6.840;2022-08-25T08:00:29;30.40;80.20
15328;DHT22;7764;51.430;6.840;2022-08-25T08:02:58;30.40;79.90
15328;DHT22;7764;51.430;6.840;2022-08-25T08:05:27;30.10;79.10
15328;DHT22;7764;51.430;6.840;2022-08-25T08:07:54;30.20;79.20
15328;DHT22;7764;51.430;6.840;2022-08-25T08:10:23;30.30;79.40
15328;DHT22;7764;51.430;6.840;2022-08-25T08:12:51;30.40;79.00
15328;DHT22;7764;51.430;6.840;2022-08-25T08:15:18;30.30;79.50
15328;DHT22;7764;51.430;6.840;2022-08-25T08:17:45;30.20;80.10
15328;DHT22;7764;51.430;6.840;2022-08-25T08:20:12;30.20;80.30
15328;DHT22;7764;51.430;6.840;2022-08-25T08:22:41;30.30;80.30
15328;DHT22;7764;51.430;6.840;2022-08-25T08:25:10;30.20;80.10
15328;DHT22;7764;51.430;6.840;2022-08-25T08:27:38;30.20;81.20
15328;DHT22;7764;51.430;6.840;2022-08-25T08:30:08;30.30;81.80
15328;DHT22;7764;51.430;6.840;2022-08-25T08:32:35;30.30;81.20
15328;DHT22;7764;51.430;6.840;2022-08-25T08:35:03;30.20;79.20
15328;DHT22;7764;51.430;6.840;2022-08-25T08:37:30;30.20;77.70
15328;DHT22;7764;51.430;6.840;2022-08-25T08:39:57;30.10;77.20
15328;DHT22;7764;51.430;6.840;2022-08-25T08:42:39;29.90;79.10
15328;DHT22;7764;51.430;6.840;2022-08-25T08:45:27;29.70;79.50
15328;DHT22;7764;51.430;6.840;2022-08-25T08:48:23;29.90;79.30
15328;DHT22;7764;51.430;6.840;2022-08-25T08:50:57;30.00;79.20
15328;DHT22;7764;51.430;6.840;2022-08-25T08:53:30;29.60;80.30
15328;DHT22;7764;51.430;6.840;2022-08-25T08:56:00;29.80;79.10
15328;DHT22;7764;51.430;6.840;2022-08-25T08:58:40;30.00;81.30
15328;DHT22;7764;51.430;6.840;2022-08-25T09:01:11;29.80;81.20
15328;DHT22;7764;51.430;6.840;2022-08-25T09:03:41;29.90;81.50
15328;DHT22;7764;51.430;6.840;2022-08-25T09:06:11;29.90;81.80
15328;DHT22;7764;51.430;6.840;2022-08-25T09:08:40;30.00;81.10
15328;DHT22;7764;51.430;6.840;2022-08-25T09:11:15;30.10;80.90
15328;DHT22;7764;51.430;6.840;2022-08-25T09:14:01;29.90;79.30
15328;DHT22;7764;51.430;6.840;2022-08-25T09:16:41;30.10;79.50
15328;DHT22;7764;51.430;6.840;2022-08-25T09:19:40;30.00;80.00
15328;DHT22;7764;51.430;6.840;2022-08-25T09:22:17;29.90;79.00
15328;DHT22;7764;51.430;6.840;2022-08-25T09:24:56;30.10;78.60
15328;DHT22;7764;51.430;6.840;2022-08-25T09:27:34;30.10;79.20
15328;DHT22;7764;51.430;6.840;2022-08-25T09:30:07;30.30;79.50
15328;DHT22;7764;51.430;6.840;2022-08-25T09:32:38;30.10;79.50
15328;DHT22;7764;51.430;6.840;2022-08-25T09:35:17;30.30;79.50
15328;DHT22;7764;51.430;6.840;2022-08-25T09:37:55;30.40;78.70
15328;DHT22;7764;51.430;6.840;2022-08-25T09:40:23;30.50;77.30
15328;DHT22;7764;51.430;6.840;2022-08-25T09:42:52;30.30;78.10
15328;DHT22;7764;51.430;6.840;2022-08-25T09:45:33;30.40;78.80
15328;DHT22;7764;51.430;6.840;2022-08-25T09:48:02;30.50;78.40
15328;DHT22;7764;51.430;6.840;2022-08-25T09:50:49;30.40;77.50
15328;DHT22;7764;51.430;6.840;2022-08-25T09:53:16;30.60;74.70
15328;DHT22;7764;51.430;6.840;2022-08-25T09:55:45;30.30;74.00
15328;DHT22;7764;51.430;6.840;2022-08-25T09:58:17;30.50;75.40
15328;DHT22;7764;51.430;6.840;2022-08-25T10:01:09;30.60;74.30
15328;DHT22;7764;51.430;6.840;2022-08-25T10:03:56;30.50;74.10
15328;DHT22;7764;51.430;6.840;2022-08-25T10:06:24;30.50;72.90
15328;DHT22;7764;51.430;6.840;2022-08-25T10:08:57;30.50;73.20
15328;DHT22;7764;51.430;6.840;2022-08-25T10:11:33;30.50;74.50
15328;DHT22;7764;51.430;6.840;2022-08-25T10:14:06;30.60;75.20
15328;DHT22;7764;51.430;6.840;2022-08-25T10:16:38;30.60;71.60
15328;DHT22;7764;51.430;6.840;2022-08-25T10:19:07;30.60;73.50
15328;DHT22;7764;51.430;6.840;2022-08-25T10:21:35;30.60;73.10
15328;DHT22;7764;51.430;6.840;2022-08-25T10:24:03;30.70;72.90
15328;DHT22;7764;51.430;6.840;2022-08-25T10:26:39;30.80;71.90
15328;DHT22;7764;51.430;6.840;2022-08-25T10:29:28;30.90;72.60
15328;DHT22;7764;51.430;6.840;2022-08-25T10:32:04;31.00;73.00
15328;DHT22;7764;51.430;6.840;2022-08-25T10:34:43;31.00;73.70
15328;DHT22;7764;51.430;6.840;2022-08-25T10:37:17;31.20;71.20
15328;DHT22;7764;51.430;6.840;2022-08-25T10:39:59;31.20;71.50
15328;DHT22;7764;51.430;6.840;2022-08-25T10:42:35;31.20;71.60
15328;DHT22;7764;51.430;6.840;2022-08-25T10:45:23;31.20;73.00
15328;DHT22;7764;51.430;6.840;2022-08-25T10:48:28;31.40;73.10
15328;DHT22;7764;51.430;6.840;2022-08-25T10:51:02;31.40;72.50
15328;DHT22;7764;51.430;6.840;2022-08-25T10:53:42;31.50;71.60
15328;DHT22;7764;51.430;6.840;2022-08-25T10:56:17;31.50;72.10
15328;DHT22;7764;51.430;6.840;2022-08-25T10:59:00;31.40;71.00
15328;DHT22;7764;51.430;6.840;2022-08-25T11:01:43;31.30;69.90
15328;DHT22;7764;51.430;6.840;2022-08-25T11:04:18;31.30;69.50
15328;DHT22;7764;51.430;6.840;2022-08-25T11:06:53;31.40;68.00
15328;DHT22;7764;51.430;6.840;2022-08-25T11:09:24;31.40;67.10
15328;DHT22;7764;51.430;6.840;2022-08-25T11:11:56;31.20;67.40
15328;DHT22;7764;51.430;6.840;2022-08-25T11:14:28;31.20;68.60
15328;DHT22;7764;51.430;6.840;2022-08-25T11:16:59;31.20;68.50
15328;DHT22;7764;51.430;6.840;2022-08-25T11:19:32;31.40;68.50
15328;DHT22;7764;51.430;6.840;2022-08-25T11:22:08;31.30;68.10
15328;DHT22;7764;51.430;6.840;2022-08-25T11:24:51;31.20;67.60
15328;DHT22;7764;51.430;6.840;2022-08-25T11:27:23;31.40;67.40
15328;DHT22;7764;51.430;6.840;2022-08-25T11:29:58;31.40;67.20
15328;DHT22;7764;51.430;6.840;2022-08-25T11:32:27;31.40;66.40
15328;DHT22;7764;51.430;6.840;2022-08-25T11:35:03;31.40;66.60
15328;DHT22;7764;51.430;6.840;2022-08-25T11:37:32;31.40;66.60
15328;DHT22;7764;51.430;6.840;2022-08-25T11:43:00;31.50;64.40
15328;DHT22;7764;51.430;6.840;2022-08-25T11:45:47;31.30;63.70
15328;DHT22;7764;51.430;6.840;2022-08-25T11:48:24;31.50;63.50
15328;DHT22;7764;51.430;6.840;2022-08-25T11:50:59;31.60;63.10
15328;DHT22;7764;51.430;6.840;2022-08-25T11:53:30;31.50;63.40
15328;DHT22;7764;51.430;6.840;2022-08-25T11:56:00;31.50;64.20
15328;DHT22;7764;51.430;6.840;2022-08-25T11:58:32;31.60;64.50
15328;DHT22;7764;51.430;6.840;2022-08-25T12:01:01;31.60;64.80
15328;DHT22;7764;51.430;6.840;2022-08-25T12:03:50;31.70;65.00
15328;DHT22;7764;51.430;6.840;2022-08-25T12:06:30;31.70;64.90
15328;DHT22;7764;51.430;6.840;2022-08-25T12:09:20;31.80;64.10
15328;DHT22;7764;51.430;6.840;2022-08-25T12:11:50;31.80;63.50
15328;DHT22;7764;51.430;6.840;2022-08-25T12:14:44;31.70;62.40
15328;DHT22;7764;51.430;6.840;2022-08-25T12:17:22;31.70;62.30
15328;DHT22;7764;51.430;6.840;2022-08-25T12:19:56;31.70;62.10
15328;DHT22;7764;51.430;6.840;2022-08-25T12:22:55;31.70;60.50
15328;DHT22;7764;51.430;6.840;2022-08-25T12:25:49;31.80;60.90
15328;DHT22;7764;51.430;6.840;2022-08-25T12:28:41;31.60;61.50
15328;DHT22;7764;51.430;6.840;2022-08-25T12:31:20;31.40;62.80
15328;DHT22;7764;51.430;6.840;2022-08-25T12:33:59;31.70;61.20
15328;DHT22;7764;51.430;6.840;2022-08-25T12:36:31;31.70;61.10
15328;DHT22;7764;51.430;6.840;2022-08-25T12:39:17;31.70;60.30
15328;DHT22;7764;51.430;6.840;2022-08-25T12:41:55;31.80;60.80
15328;DHT22;7764;51.430;6.840;2022-08-25T12:44:40;31.80;59.50
15328;DHT22;7764;51.430;6.840;2022-08-25T12:47:25;31.70;60.40
15328;DHT22;7764;51.430;6.840;2022-08-25T12:49:53;31.90;60.20
15328;DHT22;7764;51.430;6.840;2022-08-25T12:52:40;31.90;60.10
15328;DHT22;7764;51.430;6.840;2022-08-25T12:55:10;32.00;60.70
15328;DHT22;7764;51.430;6.840;2022-08-25T12:57:40;32.10;59.60
15328;DHT22;7764;51.430;6.840;2022-08-25T13:00:15;32.10;60.10
15328;DHT22;7764;51.430;6.840;2022-08-25T13:03:08;31.90;60.40
15328;DHT22;7764;51.430;6.840;2022-08-25T13:05:54;31.90;62.00
15328;DHT22;7764;51.430;6.840;2022-08-25T13:11:22;31.80;59.30
15328;DHT22;7764;51.430;6.840;2022-08-25T13:13:53;31.80;59.10
15328;DHT22;7764;51.430;6.840;2022-08-25T13:16:24;31.90;59.50
15328;DHT22;7764;51.430;6.840;2022-08-25T13:18:53;31.90;60.00
15328;DHT22;7764;51.430;6.840;2022-08-25T13:21:27;31.90;59.90
15328;DHT22;7764;51.430;6.840;2022-08-25T13:23:58;32.00;59.70
15328;DHT22;7764;51.430;6.840;2022-08-25T13:26:29;31.90;59.80
15328;DHT22;7764;51.430;6.840;2022-08-25T13:29:00;31.80;59.60
15328;DHT22;7764;51.430;6.840;2022-08-25T13:31:28;31.70;59.90
15328;DHT22;7764;51.430;6.840;2022-08-25T13:33:57;31.60;60.70
15328;DHT22;7764;51.430;6.840;2022-08-25T13:36:28;31.60;59.70
15328;DHT22;7764;51.430;6.840;2022-08-25T13:39:14;31.50;60.10
15328;DHT22;7764;51.430;6.840;2022-08-25T13:41:48;31.60;60.60
15328;DHT22;7764;51.430;6.840;2022-08-25T13:44:16;31.60;61.30
15328;DHT22;7764;51.430;6.840;2022-08-25T13:46:44;31.70;59.60
15328;DHT22;7764;51.430;6.840;2022-08-25T13:49:12;31.60;59.40
15328;DHT22;7764;51.430;6.840;2022-08-25T13:51:50;31.50;59.20
15328;DHT22;7764;51.430;6.840;2022-08-25T13:54:25;31.60;59.40
15328;DHT22;7764;51.430;6.840;2022-08-25T13:57:04;31.50;59.50
15328;DHT22;7764;51.430;6.840;2022-08-25T13:59:35;31.50;60.20
15328;DHT22;7764;51.430;6.840;2022-08-25T14:02:03;31.70;59.90
15328;DHT22;7764;51.430;6.840;2022-08-25T14:04:32;31.70;59.70
15328;DHT22;7764;51.430;6.840;2022-08-25T14:07:25;31.70;58.70
15328;DHT22;7764;51.430;6.840;2022-08-25T14:09:55;31.60;58.30
15328;DHT22;7764;51.430;6.840;2022-08-25T14:12:30;31.70;58.30
15328;DHT22;7764;51.430;6.840;2022-08-25T14:14:59;31.80;58.80
15328;DHT22;7764;51.430;6.840;2022-08-25T14:17:26;31.90;57.90
15328;DHT22;7764;51.430;6.840;2022-08-25T14:19:54;31.90;59.40
15328;DHT22;7764;51.430;6.840;2022-08-25T14:22:21;31.90;58.20
15328;DHT22;7764;51.430;6.840;2022-08-25T14:24:52;31.90;58.50
15328;DHT22;7764;51.430;6.840;2022-08-25T14:27:19;32.00;58.30
15328;DHT22;7764;51.430;6.840;2022-08-25T14:29:48;32.10;57.20
15328;DHT22;7764;51.430;6.840;2022-08-25T14:32:15;32.10;58.10
15328;DHT22;7764;51.430;6.840;2022-08-25T14:34:43;32.00;56.30
15328;DHT22;7764;51.430;6.840;2022-08-25T14:37:12;32.10;56.40
15328;DHT22;7764;51.430;6.840;2022-08-25T14:39:40;32.20;56.60
15328;DHT22;7764;51.430;6.840;2022-08-25T14:42:07;32.10;56.60
15328;DHT22;7764;51.430;6.840;2022-08-25T14:44:34;32.20;55.80
15328;DHT22;7764;51.430;6.840;2022-08-25T14:47:02;32.20;56.00
15328;DHT22;7764;51.430;6.840;2022-08-25T14:49:34;32.20;56.80
15328;DHT22;7764;51.430;6.840;2022-08-25T14:52:06;32.20;56.40
15328;DHT22;7764;51.430;6.840;2022-08-25T14:54:34;32.30;56.50
15328;DHT22;7764;51.430;6.840;2022-08-25T14:57:01;32.30;56.30
15328;DHT22;7764;51.430;6.840;2022-08-25T14:59:28;32.40;56.20
15328;DHT22;7764;51.430;6.840;2022-08-25T15:01:55;32.30;56.30
15328;DHT22;7764;51.430;6.840;2022-08-25T15:04:26;32.20;56.90
15328;DHT22;7764;51.430;6.840;2022-08-25T15:06:56;32.10;56.30
15328;DHT22;7764;51.430;6.840;2022-08-25T15:09:24;31.90;56.70
15328;DHT22;7764;51.430;6.840;2022-08-25T15:11:52;31.90;58.00
15328;DHT22;7764;51.430;6.840;2022-08-25T15:14:21;31.90;56.90
15328;DHT22;7764;51.430;6.840;2022-08-25T15:16:50;31.90;56.90
15328;DHT22;7764;51.430;6.840;2022-08-25T15:19:21;31.90;57.30
15328;DHT22;7764;51.430;6.840;2022-08-25T15:21:50;31.90;57.10
15328;DHT22;7764;51.430;6.840;2022-08-25T15:24:18;31.80;57.00
15328;DHT22;7764;51.430;6.840;2022-08-25T15:26:49;31.80;56.50
15328;DHT22;7764;51.430;6.840;2022-08-25T15:29:16;31.80;58.20
15328;DHT22;7764;51.430;6.840;2022-08-25T15:31:44;31.80;57.80
15328;DHT22;7764;51.430;6.840;2022-08-25T15:34:14;31.90;57.70
15328;DHT22;7764;51.430;6.840;2022-08-25T15:36:41;31.90;57.50
15328;DHT22;7764;51.430;6.840;2022-08-25T15:39:10;31.90;57.90
15328;DHT22;7764;51.430;6.840;2022-08-25T15:41:37;31.90;57.20
15328;DHT22;7764;51.430;6.840;2022-08-25T15:44:04;31.90;57.00
15328;DHT22;7764;51.430;6.840;2022-08-25T15:46:33;31.80;56.50
15328;DHT22;7764;51.430;6.840;2022-08-25T15:49:01;31.90;58.00
15328;DHT22;7764;51.430;6.840;2022-08-25T15:51:28;31.90;56.50
15328;DHT22;7764;51.430;6.840;2022-08-25T15:53:56;32.00;55.30
15328;DHT22;7764;51.430;6.840;2022-08-25T15:56:24;31.90;55.30
15328;DHT22;7764;51.430;6.840;2022-08-25T15:58:51;31.90;55.40
15328;DHT22;7764;51.430;6.840;2022-08-25T16:01:21;32.00;56.10
15328;DHT22;7764;51.430;6.840;2022-08-25T16:03:49;32.00;56.10
15328;DHT22;7764;51.430;6.840;2022-08-25T16:06:16;32.10;55.40
15328;DHT22;7764;51.430;6.840;2022-08-25T16:08:43;32.00;55.30
15328;DHT22;7764;51.430;6.840;2022-08-25T16:11:15;32.00;55.40
15328;DHT22;7764;51.430;6.840;2022-08-25T16:13:44;32.00;55.70